createdAt,value
2023-02-28T00:00:40.006Z,4.60
2023-02-28T00:03:07.517Z,4.30
2023-02-28T00:05:34.975Z,4.50
2023-02-28T00:08:02.318Z,4.60
2023-02-28T00:10:31.007Z,4.63
2023-02-28T00:13:01.859Z,4.53
2023-02-28T00:15:29.441Z,4.93
2023-02-28T00:17:56.996Z,7.07
2023-02-28T00:20:24.737Z,5.60
2023-02-28T00:22:53.051Z,6.43
2023-02-28T00:25:22.654Z,5.27
2023-02-28T00:27:50.056Z,6.73
2023-02-28T00:30:18.261Z,7.00
2023-02-28T00:32:45.697Z,6.70
2023-02-28T00:35:13.569Z,6.40
2023-02-28T00:37:42.867Z,6.50
2023-02-28T00:40:11.023Z,5.47
2023-02-28T00:42:38.623Z,6.67
2023-02-28T00:45:06.352Z,6.20
2023-02-28T00:47:34.098Z,6.37
2023-02-28T00:50:02.039Z,6.40
2023-02-28T00:52:29.422Z,8.03
2023-02-28T00:54:56.954Z,6.77
2023-02-28T00:57:24.371Z,5.90
2023-02-28T00:59:51.901Z,6.57
2023-02-28T01:02:20.922Z,8.70
2023-02-28T01:04:48.843Z,7.73
2023-02-28T01:07:16.401Z,8.40
2023-02-28T01:09:43.896Z,7.13
2023-02-28T01:12:11.408Z,7.20
2023-02-28T01:14:38.903Z,6.63
2023-02-28T01:17:07.138Z,6.60
2023-02-28T01:19:36.325Z,7.53
2023-02-28T01:22:05.077Z,6.80
2023-02-28T01:24:34.362Z,7.30
2023-02-28T01:27:02.032Z,11.50
2023-02-28T01:29:29.579Z,8.13
2023-02-28T01:31:58.200Z,7.70
2023-02-28T01:34:25.711Z,6.33
2023-02-28T01:36:53.128Z,7.77
2023-02-28T01:39:21.100Z,6.60
2023-02-28T01:41:48.554Z,7.00
2023-02-28T01:44:35.546Z,8.30
2023-02-28T01:47:02.973Z,10.60
2023-02-28T01:49:30.467Z,6.73
2023-02-28T01:51:59.182Z,6.87
2023-02-28T01:54:30.345Z,7.03
2023-02-28T01:57:06.014Z,8.20
2023-02-28T01:59:39.415Z,6.77
2023-02-28T02:02:07.151Z,6.90
2023-02-28T02:04:39.083Z,6.87
2023-02-28T02:07:06.506Z,8.00
2023-02-28T02:09:33.987Z,7.13
2023-02-28T02:12:05.349Z,6.83
2023-02-28T02:14:33.387Z,6.97
2023-02-28T02:17:20.097Z,8.23
2023-02-28T02:20:05.618Z,8.87
2023-02-28T02:22:49.501Z,6.70
2023-02-28T02:25:27.740Z,6.20
2023-02-28T02:28:09.401Z,6.37
2023-02-28T02:30:38.603Z,7.60
2023-02-28T02:33:20.781Z,7.17
2023-02-28T02:35:57.618Z,6.60
2023-02-28T02:38:34.014Z,7.07
2023-02-28T02:41:10.146Z,8.33
2023-02-28T02:43:43.496Z,6.53
2023-02-28T02:46:17.209Z,6.70
2023-02-28T02:48:47.206Z,9.57
2023-02-28T02:51:18.883Z,6.20
2023-02-28T02:53:51.795Z,7.53
2023-02-28T02:56:21.361Z,6.33
2023-02-28T02:58:51.146Z,9.43
2023-02-28T03:01:28.985Z,5.90
2023-02-28T03:03:59.133Z,6.67
2023-02-28T03:06:27.405Z,6.57
2023-02-28T03:08:54.839Z,7.73
2023-02-28T03:11:24.295Z,6.13
2023-02-28T03:13:51.763Z,6.43
2023-02-28T03:16:35.046Z,5.13
2023-02-28T03:19:21.580Z,7.10
2023-02-28T03:21:55.200Z,6.50
2023-02-28T03:24:32.737Z,5.80
2023-02-28T03:27:03.644Z,6.40
2023-02-28T03:29:34.128Z,8.23
2023-02-28T03:32:08.937Z,7.63
2023-02-28T03:34:39.930Z,8.90
2023-02-28T03:37:13.670Z,7.23
2023-02-28T03:39:49.047Z,6.00
2023-02-28T03:42:23.576Z,6.57
2023-02-28T03:45:02.214Z,7.90
2023-02-28T03:47:44.600Z,6.23
2023-02-28T03:50:14.470Z,5.13
2023-02-28T03:52:46.082Z,7.07
2023-02-28T03:55:14.995Z,5.90
2023-02-28T03:57:48.275Z,6.27
2023-02-28T04:00:22.837Z,5.90
2023-02-28T04:02:53.547Z,8.70
2023-02-28T04:05:23.948Z,5.70
2023-02-28T04:07:51.195Z,7.40
2023-02-28T04:10:19.008Z,5.83
2023-02-28T04:12:46.133Z,8.23
2023-02-28T04:15:13.345Z,6.00
2023-02-28T04:17:40.530Z,5.17
2023-02-28T04:20:10.493Z,6.67
2023-02-28T04:22:38.239Z,5.43
2023-02-28T04:25:06.878Z,6.13
2023-02-28T04:27:34.141Z,6.47
2023-02-28T04:30:01.336Z,5.83
2023-02-28T04:32:28.512Z,6.30
2023-02-28T04:34:55.657Z,5.83
2023-02-28T04:37:28.677Z,5.40
2023-02-28T04:39:56.141Z,5.80
2023-02-28T04:42:23.254Z,5.80
2023-02-28T04:44:50.402Z,5.47
2023-02-28T04:47:17.518Z,5.90
2023-02-28T04:49:44.667Z,6.13
2023-02-28T04:52:11.935Z,6.07
2023-02-28T04:54:39.922Z,7.67
2023-02-28T04:57:07.081Z,7.30
2023-02-28T04:59:34.438Z,5.70
2023-02-28T05:02:07.491Z,10.93
2023-02-28T05:04:38.155Z,6.30
2023-02-28T05:07:05.816Z,7.10
2023-02-28T05:09:33.987Z,5.50
2023-02-28T05:12:01.157Z,5.43
2023-02-28T05:14:35.628Z,4.90
2023-02-28T05:17:02.720Z,5.23
2023-02-28T05:19:29.893Z,6.53
2023-02-28T05:21:57.646Z,6.50
2023-02-28T05:24:24.876Z,5.60
2023-02-28T05:26:53.687Z,5.17
2023-02-28T05:29:20.828Z,5.83
2023-02-28T05:31:48.414Z,5.37
2023-02-28T05:34:16.977Z,5.80
2023-02-28T05:36:44.319Z,5.47
2023-02-28T05:39:13.531Z,6.00
2023-02-28T05:41:41.958Z,5.40
2023-02-28T05:44:09.497Z,5.87
2023-02-28T05:46:36.989Z,5.70
2023-02-28T05:49:04.277Z,7.40
2023-02-28T05:51:31.853Z,5.50
2023-02-28T05:54:02.509Z,5.33
2023-02-28T05:56:31.208Z,4.97
2023-02-28T05:58:58.406Z,6.53
2023-02-28T06:01:28.230Z,4.73
2023-02-28T06:03:55.485Z,6.97
2023-02-28T06:06:22.688Z,6.50
2023-02-28T06:08:49.914Z,5.30
2023-02-28T06:11:21.260Z,4.93
2023-02-28T06:13:48.496Z,5.60
2023-02-28T06:16:15.661Z,5.40
2023-02-28T06:18:42.843Z,6.40
2023-02-28T06:21:12.083Z,5.60
2023-02-28T06:23:39.306Z,5.37
2023-02-28T06:26:07.730Z,6.73
2023-02-28T06:28:35.446Z,5.67
2023-02-28T06:31:08.458Z,5.30
2023-02-28T06:33:35.777Z,6.27
2023-02-28T06:36:03.008Z,7.23
2023-02-28T06:38:30.188Z,5.20
2023-02-28T06:40:58.727Z,6.50
2023-02-28T06:43:26.556Z,5.87
2023-02-28T06:45:56.351Z,6.50
2023-02-28T06:48:23.599Z,5.60
2023-02-28T06:50:51.088Z,7.43
2023-02-28T06:53:18.258Z,6.13
2023-02-28T06:55:45.425Z,7.17
2023-02-28T06:58:22.110Z,5.63
2023-02-28T07:00:52.077Z,7.73
2023-02-28T07:03:19.677Z,5.40
2023-02-28T07:05:48.859Z,6.83
2023-02-28T07:08:16.151Z,10.97
2023-02-28T07:10:43.299Z,6.20
2023-02-28T07:13:10.650Z,8.13
2023-02-28T07:15:41.718Z,7.30
2023-02-28T07:18:10.163Z,6.83
2023-02-28T07:20:39.538Z,9.40
2023-02-28T07:23:06.706Z,7.30
2023-02-28T07:25:33.863Z,7.40
2023-02-28T07:28:01.143Z,8.87
2023-02-28T07:30:28.301Z,7.10
2023-02-28T07:32:56.944Z,8.20
2023-02-28T07:35:24.286Z,7.57
2023-02-28T07:37:52.385Z,7.13
2023-02-28T07:40:21.722Z,6.30
2023-02-28T07:42:48.876Z,9.63
2023-02-28T07:45:18.383Z,9.60
2023-02-28T07:47:45.673Z,7.33
2023-02-28T07:50:14.013Z,10.30
2023-02-28T07:52:41.692Z,5.53
2023-02-28T07:55:10.160Z,8.40
2023-02-28T07:57:37.707Z,7.63
2023-02-28T08:00:06.061Z,10.00
2023-02-28T08:02:38.741Z,10.20
2023-02-28T08:05:06.397Z,8.80
2023-02-28T08:07:34.387Z,8.03
2023-02-28T08:10:01.546Z,9.93
2023-02-28T08:12:29.828Z,6.87
2023-02-28T08:14:56.958Z,11.43
2023-02-28T08:17:24.189Z,8.30
2023-02-28T08:19:51.337Z,9.20
2023-02-28T08:22:18.515Z,7.93
2023-02-28T08:24:45.863Z,19.83
2023-02-28T08:27:14.929Z,8.80
2023-02-28T08:29:42.146Z,7.17
2023-02-28T08:32:23.631Z,5.40
2023-02-28T08:34:56.058Z,5.80
2023-02-28T08:37:23.237Z,8.00
2023-02-28T08:39:50.409Z,7.73
2023-02-28T08:42:17.889Z,7.97
2023-02-28T08:44:45.048Z,7.17
2023-02-28T08:47:12.244Z,8.23
2023-02-28T08:49:39.518Z,8.80
2023-02-28T08:52:07.015Z,20.57
2023-02-28T08:54:35.235Z,8.20
2023-02-28T08:57:02.478Z,7.27
2023-02-28T08:59:29.637Z,6.70
2023-02-28T09:01:57.184Z,6.40
2023-02-28T09:04:25.420Z,7.50
2023-02-28T09:06:52.814Z,9.33
2023-02-28T09:09:19.993Z,7.53
2023-02-28T09:11:47.474Z,7.67
2023-02-28T09:14:14.677Z,6.47
2023-02-28T09:16:41.827Z,8.00
2023-02-28T09:19:12.092Z,9.17
2023-02-28T09:21:39.233Z,8.10
2023-02-28T09:24:07.357Z,9.53
2023-02-28T09:26:42.666Z,8.10
2023-02-28T09:29:11.939Z,8.20
2023-02-28T09:31:39.145Z,5.30
2023-02-28T09:34:06.507Z,9.07
2023-02-28T09:36:44.787Z,6.07
2023-02-28T09:39:15.351Z,8.40
2023-02-28T09:41:51.436Z,9.10
2023-02-28T09:44:30.552Z,7.03
2023-02-28T09:47:00.536Z,6.43
2023-02-28T09:49:33.679Z,6.13
2023-02-28T09:52:10.000Z,15.93
2023-02-28T09:54:37.990Z,12.57
2023-02-28T09:57:17.511Z,6.50
2023-02-28T09:59:54.932Z,9.00
2023-02-28T10:02:42.981Z,9.33
2023-02-28T10:05:14.040Z,11.33
2023-02-28T10:07:58.359Z,8.10
2023-02-28T10:10:25.510Z,9.03
2023-02-28T10:12:55.154Z,12.53
2023-02-28T10:15:23.427Z,7.63
2023-02-28T10:17:55.249Z,8.37
2023-02-28T10:20:30.883Z,6.97
2023-02-28T10:23:08.455Z,8.80
2023-02-28T10:25:37.281Z,8.00
2023-02-28T10:28:07.450Z,12.23
2023-02-28T10:30:34.684Z,9.73
2023-02-28T10:33:01.871Z,11.90
2023-02-28T10:35:29.105Z,7.03
2023-02-28T10:37:58.353Z,11.63
2023-02-28T10:40:26.569Z,6.20
2023-02-28T10:43:04.646Z,13.73
2023-02-28T10:45:37.056Z,7.70
2023-02-28T10:48:16.427Z,8.50
2023-02-28T10:50:44.924Z,8.23
2023-02-28T10:53:12.034Z,24.23
2023-02-28T10:55:40.295Z,15.93
2023-02-28T10:58:22.140Z,7.60
2023-02-28T11:00:49.872Z,6.93
2023-02-28T11:03:30.221Z,7.10
2023-02-28T11:05:57.775Z,12.50
2023-02-28T11:08:25.445Z,6.60
2023-02-28T11:10:56.844Z,6.57
2023-02-28T11:13:27.715Z,6.97
2023-02-28T11:15:56.279Z,15.30
2023-02-28T11:18:31.134Z,7.50
2023-02-28T11:21:00.662Z,8.53
2023-02-28T11:23:31.071Z,6.30
2023-02-28T11:26:00.263Z,8.77
2023-02-28T11:28:35.101Z,8.53
2023-02-28T11:31:02.389Z,8.80
2023-02-28T11:33:30.734Z,8.07
2023-02-28T11:36:11.248Z,9.87
2023-02-28T11:38:39.100Z,7.97
2023-02-28T11:41:11.917Z,8.87
2023-02-28T11:43:53.778Z,7.10
2023-02-28T11:46:32.650Z,9.27
2023-02-28T11:49:04.501Z,7.87
2023-02-28T11:51:36.438Z,18.47
2023-02-28T11:54:03.579Z,9.27
2023-02-28T11:56:38.022Z,10.90
2023-02-28T11:59:15.322Z,11.30
2023-02-28T12:02:01.628Z,7.33
2023-02-28T12:04:34.758Z,8.60
2023-02-28T12:07:05.396Z,7.57
2023-02-28T12:09:42.435Z,9.27
2023-02-28T12:12:23.276Z,12.43
2023-02-28T12:15:00.754Z,7.40
2023-02-28T12:17:44.081Z,6.97
2023-02-28T12:20:30.482Z,8.53
2023-02-28T12:23:03.922Z,9.30
2023-02-28T12:25:44.547Z,7.87
2023-02-28T12:28:15.541Z,11.50
2023-02-28T12:30:52.762Z,9.60
2023-02-28T12:33:21.244Z,11.30
2023-02-28T12:35:56.434Z,10.47
2023-02-28T12:38:37.712Z,8.90
2023-02-28T12:41:08.704Z,8.47
2023-02-28T12:43:38.320Z,13.17
2023-02-28T12:46:18.715Z,9.33
2023-02-28T12:48:49.215Z,11.73
2023-02-28T12:51:18.010Z,11.37
2023-02-28T12:53:56.051Z,12.30
2023-02-28T12:56:32.258Z,12.20
2023-02-28T12:59:02.703Z,10.70
2023-02-28T13:01:44.639Z,13.43
2023-02-28T13:04:47.204Z,10.63
2023-02-28T13:07:36.604Z,9.40
2023-02-28T13:10:05.765Z,18.60
2023-02-28T13:12:34.258Z,11.40
2023-02-28T13:15:22.111Z,9.20
2023-02-28T13:17:51.640Z,10.47
2023-02-28T13:20:21.682Z,8.77
2023-02-28T13:22:50.624Z,8.50
2023-02-28T13:25:23.926Z,10.20
2023-02-28T13:27:57.901Z,10.53
2023-02-28T13:30:43.940Z,8.90
2023-02-28T13:33:32.457Z,11.10
2023-02-28T13:36:20.227Z,8.50
2023-02-28T13:39:03.079Z,10.00
2023-02-28T13:41:44.209Z,8.83
2023-02-28T13:44:30.671Z,10.07
2023-02-28T13:47:00.793Z,19.80
2023-02-28T13:49:32.912Z,9.73
2023-02-28T13:52:09.855Z,10.73
2023-02-28T13:54:57.456Z,11.53
2023-02-28T13:57:27.457Z,9.57
2023-02-28T14:00:07.330Z,8.80
2023-02-28T14:03:15.457Z,7.77
2023-02-28T14:05:43.094Z,8.30
2023-02-28T14:08:21.823Z,9.57
2023-02-28T14:11:04.442Z,11.10
2023-02-28T14:13:48.019Z,9.33
2023-02-28T14:16:18.153Z,11.70
2023-02-28T14:19:06.432Z,8.60
2023-02-28T14:21:36.739Z,9.13
2023-02-28T14:24:27.234Z,10.37
2023-02-28T14:27:07.984Z,9.20
2023-02-28T14:29:52.910Z,11.20
2023-02-28T14:32:36.504Z,10.47
2023-02-28T14:35:03.649Z,10.50
2023-02-28T14:37:35.369Z,9.27
2023-02-28T14:40:05.219Z,8.80
2023-02-28T14:42:33.976Z,9.40
2023-02-28T14:45:04.439Z,10.93
2023-02-28T14:47:36.783Z,10.37
2023-02-28T14:50:06.528Z,9.43
2023-02-28T14:52:35.224Z,10.77
2023-02-28T14:55:08.988Z,8.40
2023-02-28T14:57:42.076Z,10.77
2023-02-28T15:00:17.391Z,11.60
2023-02-28T15:02:44.978Z,11.23
2023-02-28T15:05:21.794Z,12.23
2023-02-28T15:07:51.051Z,15.80
2023-02-28T15:10:23.139Z,9.47
2023-02-28T15:12:54.180Z,12.00
2023-02-28T15:15:28.244Z,10.80
2023-02-28T15:18:05.043Z,10.23
2023-02-28T15:20:33.848Z,9.87
2023-02-28T15:23:01.602Z,10.50
2023-02-28T15:25:29.264Z,10.03
2023-02-28T15:27:58.286Z,9.23
2023-02-28T15:30:29.279Z,13.30
2023-02-28T15:33:18.162Z,10.10
2023-02-28T15:35:50.959Z,9.33
2023-02-28T15:38:28.790Z,8.70
2023-02-28T15:40:57.830Z,12.80
2023-02-28T15:43:34.514Z,10.10
2023-02-28T15:46:07.745Z,9.90
2023-02-28T15:48:39.039Z,9.93
2023-02-28T15:51:20.141Z,9.27
2023-02-28T15:53:54.252Z,9.57
2023-02-28T15:56:27.164Z,12.23
2023-02-28T15:59:02.736Z,8.70
2023-02-28T16:01:33.259Z,8.90
2023-02-28T16:04:08.744Z,9.80
2023-02-28T16:06:43.112Z,12.57
2023-02-28T16:09:29.892Z,9.67
2023-02-28T16:12:04.332Z,10.53
2023-02-28T16:14:36.572Z,11.13
2023-02-28T16:17:43.913Z,11.60
2023-02-28T16:20:17.866Z,12.67
2023-02-28T16:22:55.967Z,9.30
2023-02-28T16:25:26.497Z,10.63
2023-02-28T16:27:56.107Z,10.30
2023-02-28T16:30:27.091Z,8.90
2023-02-28T16:32:59.490Z,11.10
2023-02-28T16:35:28.574Z,10.07
2023-02-28T16:37:56.852Z,9.57
2023-02-28T16:40:26.489Z,10.20
2023-02-28T16:42:55.142Z,11.00
2023-02-28T16:45:32.962Z,9.13
2023-02-28T16:48:00.583Z,9.53
2023-02-28T16:50:31.800Z,9.37
2023-02-28T16:52:59.889Z,13.90
2023-02-28T16:55:27.802Z,11.60
2023-02-28T16:57:56.894Z,11.60
2023-02-28T17:00:28.097Z,11.10
2023-02-28T17:02:55.989Z,9.63
2023-02-28T17:05:24.840Z,12.80
2023-02-28T17:07:56.624Z,10.70
2023-02-28T17:10:25.388Z,10.70
2023-02-28T17:12:58.419Z,14.10
2023-02-28T17:15:32.255Z,10.67
2023-02-28T17:18:00.640Z,14.17
2023-02-28T17:20:29.329Z,9.23
2023-02-28T17:22:57.108Z,14.10
2023-02-28T17:25:33.130Z,9.13
2023-02-28T17:28:02.210Z,12.47
2023-02-28T17:30:34.701Z,14.80
2023-02-28T17:33:02.606Z,11.30
2023-02-28T17:35:32.214Z,13.83
2023-02-28T17:38:00.692Z,11.07
2023-02-28T17:40:29.929Z,10.23
2023-02-28T17:42:58.630Z,14.43
2023-02-28T17:45:26.372Z,12.23
2023-02-28T17:47:55.534Z,9.77
2023-02-28T17:50:23.957Z,11.60
2023-02-28T17:52:52.588Z,13.57
2023-02-28T17:55:23.643Z,10.70
2023-02-28T17:57:53.377Z,11.60
2023-02-28T18:00:24.808Z,11.77
2023-02-28T18:02:55.132Z,12.10
2023-02-28T18:05:25.552Z,13.13
2023-02-28T18:07:55.923Z,11.57
2023-02-28T18:10:25.284Z,10.27
2023-02-28T18:12:55.681Z,14.03
2023-02-28T18:15:26.583Z,12.90
2023-02-28T18:17:58.577Z,15.87
2023-02-28T18:20:29.084Z,15.87
2023-02-28T18:22:57.560Z,11.97
2023-02-28T18:25:27.816Z,10.37
2023-02-28T18:27:58.148Z,15.47
2023-02-28T18:30:30.881Z,11.43
2023-02-28T18:33:02.952Z,10.00
2023-02-28T18:35:37.727Z,10.73
2023-02-28T18:38:15.958Z,14.30
2023-02-28T18:40:44.428Z,10.90
2023-02-28T18:43:11.725Z,14.40
2023-02-28T18:45:40.783Z,14.60
2023-02-28T18:48:09.589Z,9.90
2023-02-28T18:50:39.808Z,13.00
2023-02-28T18:53:07.606Z,14.03
2023-02-28T18:55:39.405Z,15.63
2023-02-28T18:58:07.822Z,11.70
2023-02-28T19:00:36.387Z,13.13
2023-02-28T19:03:07.836Z,11.10
2023-02-28T19:05:35.747Z,14.23
2023-02-28T19:08:06.140Z,12.20
2023-02-28T19:10:33.673Z,11.73
2023-02-28T19:13:04.600Z,10.10
2023-02-28T19:15:34.076Z,10.93
2023-02-28T19:18:03.617Z,12.63
2023-02-28T19:20:32.656Z,13.07
2023-02-28T19:23:02.008Z,11.20
2023-02-28T19:25:33.872Z,12.23
2023-02-28T19:28:01.713Z,13.17
2023-02-28T19:30:30.929Z,11.97
2023-02-28T19:33:02.806Z,11.37
2023-02-28T19:35:36.866Z,12.40
2023-02-28T19:38:04.330Z,12.10
2023-02-28T19:40:34.463Z,14.40
2023-02-28T19:43:04.240Z,11.50
2023-02-28T19:45:38.782Z,11.27
2023-02-28T19:48:13.525Z,13.37
2023-02-28T19:50:42.782Z,13.70
2023-02-28T19:53:11.005Z,12.40
2023-02-28T19:55:38.528Z,11.40
2023-02-28T19:58:06.908Z,12.60
2023-02-28T20:00:34.822Z,16.33
2023-02-28T20:03:02.065Z,14.67
2023-02-28T20:05:29.288Z,14.73
2023-02-28T20:07:56.855Z,11.10
2023-02-28T20:10:24.648Z,14.27
2023-02-28T20:12:52.897Z,15.70
2023-02-28T20:15:20.361Z,14.40
2023-02-28T20:17:48.682Z,15.73
2023-02-28T20:20:16.470Z,13.03
2023-02-28T20:22:43.764Z,12.37
2023-02-28T20:25:11.467Z,16.57
2023-02-28T20:27:39.700Z,17.27
2023-02-28T20:30:07.277Z,16.43
2023-02-28T20:32:39.402Z,17.37
2023-02-28T20:35:08.745Z,18.17
2023-02-28T20:37:40.059Z,13.70
2023-02-28T20:40:10.110Z,17.33
2023-02-28T20:42:38.062Z,12.20
2023-02-28T20:45:05.409Z,13.50
2023-02-28T20:47:33.754Z,16.50
2023-02-28T20:50:02.656Z,15.40
2023-02-28T20:52:33.095Z,15.07
2023-02-28T20:55:00.764Z,16.30
2023-02-28T20:57:30.344Z,16.50
2023-02-28T21:00:02.039Z,15.03
2023-02-28T21:02:30.072Z,13.60
2023-02-28T21:04:57.303Z,15.80
2023-02-28T21:07:26.055Z,15.17
2023-02-28T21:09:54.847Z,15.37
2023-02-28T21:12:22.280Z,17.87
2023-02-28T21:14:57.321Z,14.63
2023-02-28T21:17:26.044Z,20.30
2023-02-28T21:19:53.774Z,20.07
2023-02-28T21:22:22.552Z,15.50
2023-02-28T21:24:53.614Z,14.27
2023-02-28T21:27:23.258Z,16.43
2023-02-28T21:29:50.448Z,14.27
2023-02-28T21:32:20.975Z,16.93
2023-02-28T21:34:51.784Z,15.87
2023-02-28T21:37:23.619Z,14.27
2023-02-28T21:39:54.946Z,17.17
2023-02-28T21:42:22.571Z,16.37
2023-02-28T21:44:50.228Z,14.70
2023-02-28T21:47:17.591Z,19.10
2023-02-28T21:49:44.801Z,15.53
2023-02-28T21:52:11.923Z,14.70
2023-02-28T21:54:39.062Z,16.00
2023-02-28T21:57:06.309Z,14.50
2023-02-28T21:59:34.213Z,23.50
2023-02-28T22:02:02.599Z,15.83
2023-02-28T22:04:30.781Z,20.97
2023-02-28T22:06:58.221Z,18.37
2023-02-28T22:09:25.991Z,17.37
2023-02-28T22:11:53.124Z,19.60
2023-02-28T22:14:21.080Z,17.70
2023-02-28T22:16:53.250Z,16.60
2023-02-28T22:19:21.786Z,24.60
2023-02-28T22:21:50.768Z,14.87
2023-02-28T22:24:20.787Z,18.37
2023-02-28T22:26:49.234Z,17.53
2023-02-28T22:29:16.488Z,13.50
2023-02-28T22:31:44.744Z,18.53
2023-02-28T22:34:12.913Z,15.93
2023-02-28T22:36:41.866Z,15.80
2023-02-28T22:39:09.214Z,15.97
2023-02-28T22:41:36.409Z,16.40
2023-02-28T22:44:05.016Z,14.60
2023-02-28T22:46:33.945Z,15.73
2023-02-28T22:49:02.913Z,17.47
2023-02-28T22:51:30.153Z,19.73
2023-02-28T22:53:58.085Z,17.20
2023-02-28T22:56:26.268Z,20.13
2023-02-28T22:58:54.684Z,14.97
2023-02-28T23:01:22.608Z,17.57
2023-02-28T23:03:50.355Z,17.17
2023-02-28T23:06:22.950Z,18.43
2023-02-28T23:08:51.315Z,18.83
2023-02-28T23:11:19.962Z,17.40
2023-02-28T23:13:58.226Z,16.97
2023-02-28T23:16:35.438Z,23.47
2023-02-28T23:19:04.950Z,19.93
2023-02-28T23:21:32.690Z,16.10
2023-02-28T23:24:02.711Z,14.30
2023-02-28T23:26:31.248Z,15.77
2023-02-28T23:28:59.286Z,20.47
2023-02-28T23:31:26.595Z,22.57
2023-02-28T23:33:54.022Z,18.90
2023-02-28T23:36:21.272Z,19.60
2023-02-28T23:38:50.296Z,14.97
2023-02-28T23:41:18.084Z,22.33
2023-02-28T23:43:45.405Z,18.10
2023-02-28T23:46:13.505Z,16.27
2023-02-28T23:48:41.378Z,15.03
2023-02-28T23:51:19.948Z,17.43
2023-02-28T23:53:48.404Z,18.17
2023-02-28T23:56:17.300Z,16.50
2023-02-28T23:58:45.875Z,18.80
